sensor_id;sensor_type;location;lat;lon;timestamp;temperature;humidity
17200;DHT22;8716;52.268;20.968;2023-11-21T00:01:03;1.90;99.90
17200;DHT22;8716;52.268;20.968;2023-11-21T00:03:32;1.80;99.90
17200;DHT22;8716;52.268;20.968;2023-11-21T00:06:02;1.80;99.90
17200;DHT22;8716;52.268;20.968;2023-11-21T00:08:32;1.80;99.90
17200;DHT22;8716;52.268;20.968;2023-11-21T00:11:01;1.80;99.90
17200;DHT22;8716;52.268;20.968;2023-11-21T00:13:33;1.90;99.90
17200;DHT22;8716;52.268;20.968;2023-11-21T00:16:03;2.00;99.90
17200;DHT22;8716;52.268;20.968;2023-11-21T00:18:35;1.90;99.90
17200;DHT22;8716;52.268;20.968;2023-11-21T00:21:03;1.80;99.90
17200;DHT22;8716;52.268;20.968;2023-11-21T00:23:32;1.80;99.90
17200;DHT22;8716;52.268;20.968;2023-11-21T00:26:01;2.00;99.90
17200;DHT22;8716;52.268;20.968;2023-11-21T00:28:30;1.80;99.90
17200;DHT22;8716;52.268;20.968;2023-11-21T00:31:01;1.80;99.90
17200;DHT22;8716;52.268;20.968;2023-11-21T00:33:29;1.80;99.90
17200;DHT22;8716;52.268;20.968;2023-11-21T00:35:58;1.70;99.90
17200;DHT22;8716;52.268;20.968;2023-11-21T00:38:28;1.80;99.90
17200;DHT22;8716;52.268;20.968;2023-11-21T00:40:58;1.80;99.90
17200;DHT22;8716;52.268;20.968;2023-11-21T00:43:29;1.70;99.90
17200;DHT22;8716;52.268;20.968;2023-11-21T00:45:58;1.70;99.90
17200;DHT22;8716;52.268;20.968;2023-11-21T00:48:29;1.60;99.90
17200;DHT22;8716;52.268;20.968;2023-11-21T00:50:57;1.60;99.90
17200;DHT22;8716;52.268;20.968;2023-11-21T00:53:26;1.60;99.90
17200;DHT22;8716;52.268;20.968;2023-11-21T00:55:54;1.70;99.90
17200;DHT22;8716;52.268;20.968;2023-11-21T00:58:27;1.70;99.90
17200;DHT22;8716;52.268;20.968;2023-11-21T01:00:55;1.70;99.90
17200;DHT22;8716;52.268;20.968;2023-11-21T01:03:24;1.70;99.90
17200;DHT22;8716;52.268;20.968;2023-11-21T01:05:54;1.80;99.90
17200;DHT22;8716;52.268;20.968;2023-11-21T01:08:22;1.60;99.90
17200;DHT22;8716;52.268;20.968;2023-11-21T01:10:51;1.70;99.90
17200;DHT22;8716;52.268;20.968;2023-11-21T01:13:20;1.60;99.90
17200;DHT22;8716;52.268;20.968;2023-11-21T01:15:48;1.70;99.90
17200;DHT22;8716;52.268;20.968;2023-11-21T01:18:16;1.70;99.90
17200;DHT22;8716;52.268;20.968;2023-11-21T01:20:44;1.60;99.90
17200;DHT22;8716;52.268;20.968;2023-11-21T01:23:15;1.50;99.90
17200;DHT22;8716;52.268;20.968;2023-11-21T01:25:43;1.60;99.90
17200;DHT22;8716;52.268;20.968;2023-11-21T01:28:12;1.50;99.90
17200;DHT22;8716;52.268;20.968;2023-11-21T01:30:40;1.40;99.90
17200;DHT22;8716;52.268;20.968;2023-11-21T01:33:08;1.50;99.90
17200;DHT22;8716;52.268;20.968;2023-11-21T01:35:37;1.40;99.90
17200;DHT22;8716;52.268;20.968;2023-11-21T01:38:05;1.50;99.90
17200;DHT22;8716;52.268;20.968;2023-11-21T01:40:36;1.40;99.90
17200;DHT22;8716;52.268;20.968;2023-11-21T01:43:04;1.50;99.90
17200;DHT22;8716;52.268;20.968;2023-11-21T01:45:33;1.40;99.90
17200;DHT22;8716;52.268;20.968;2023-11-21T01:48:02;1.50;99.90
17200;DHT22;8716;52.268;20.968;2023-11-21T01:50:32;1.50;99.90
17200;DHT22;8716;52.268;20.968;2023-11-21T01:53:01;1.60;99.90
17200;DHT22;8716;52.268;20.968;2023-11-21T01:55:30;1.50;99.90
17200;DHT22;8716;52.268;20.968;2023-11-21T01:58:00;1.40;99.90
17200;DHT22;8716;52.268;20.968;2023-11-21T02:00:28;1.40;99.90
17200;DHT22;8716;52.268;20.968;2023-11-21T02:02:57;1.40;99.90
17200;DHT22;8716;52.268;20.968;2023-11-21T02:05:27;1.30;99.90
17200;DHT22;8716;52.268;20.968;2023-11-21T02:07:58;1.30;99.90
17200;DHT22;8716;52.268;20.968;2023-11-21T02:10:28;1.30;99.90
17200;DHT22;8716;52.268;20.968;2023-11-21T02:12:59;1.30;99.90
17200;DHT22;8716;52.268;20.968;2023-11-21T02:15:30;1.40;99.90
17200;DHT22;8716;52.268;20.968;2023-11-21T02:17:58;1.40;99.90
17200;DHT22;8716;52.268;20.968;2023-11-21T02:20:28;1.50;99.90
17200;DHT22;8716;52.268;20.968;2023-11-21T02:22:58;1.40;99.90
17200;DHT22;8716;52.268;20.968;2023-11-21T02:25:31;1.30;99.90
17200;DHT22;8716;52.268;20.968;2023-11-21T02:28:02;1.30;99.90
17200;DHT22;8716;52.268;20.968;2023-11-21T02:30:30;1.30;99.90
17200;DHT22;8716;52.268;20.968;2023-11-21T02:32:59;1.30;99.90
17200;DHT22;8716;52.268;20.968;2023-11-21T02:35:29;1.30;99.90
17200;DHT22;8716;52.268;20.968;2023-11-21T02:38:00;1.30;99.90
17200;DHT22;8716;52.268;20.968;2023-11-21T02:40:29;1.30;99.90
17200;DHT22;8716;52.268;20.968;2023-11-21T02:42:58;1.30;99.90
17200;DHT22;8716;52.268;20.968;2023-11-21T02:45:26;1.30;99.90
17200;DHT22;8716;52.268;20.968;2023-11-21T02:47:55;1.30;99.90
17200;DHT22;8716;52.268;20.968;2023-11-21T02:50:25;1.20;99.90
17200;DHT22;8716;52.268;20.968;2023-11-21T02:52:54;1.20;99.90
17200;DHT22;8716;52.268;20.968;2023-11-21T02:55:25;1.30;99.90
17200;DHT22;8716;52.268;20.968;2023-11-21T02:57:54;1.30;99.90
17200;DHT22;8716;52.268;20.968;2023-11-21T03:00:23;1.30;99.90
17200;DHT22;8716;52.268;20.968;2023-11-21T03:02:55;1.20;99.90
17200;DHT22;8716;52.268;20.968;2023-11-21T03:05:25;1.30;99.90
17200;DHT22;8716;52.268;20.968;2023-11-21T03:07:53;1.30;99.90
17200;DHT22;8716;52.268;20.968;2023-11-21T03:10:22;1.40;99.90
17200;DHT22;8716;52.268;20.968;2023-11-21T03:12:52;1.40;99.90
17200;DHT22;8716;52.268;20.968;2023-11-21T03:15:20;1.30;99.90
17200;DHT22;8716;52.268;20.968;2023-11-21T03:17:48;1.30;99.90
17200;DHT22;8716;52.268;20.968;2023-11-21T03:20:17;1.30;99.90
17200;DHT22;8716;52.268;20.968;2023-11-21T03:22:45;1.30;99.90
17200;DHT22;8716;52.268;20.968;2023-11-21T03:25:15;1.20;99.90
17200;DHT22;8716;52.268;20.968;2023-11-21T03:27:44;1.30;99.90
17200;DHT22;8716;52.268;20.968;2023-11-21T03:30:14;1.20;99.90
17200;DHT22;8716;52.268;20.968;2023-11-21T03:32:43;1.30;99.90
17200;DHT22;8716;52.268;20.968;2023-11-21T03:35:14;1.20;99.90
17200;DHT22;8716;52.268;20.968;2023-11-21T03:37:42;1.30;99.90
17200;DHT22;8716;52.268;20.968;2023-11-21T03:40:11;1.30;99.90
17200;DHT22;8716;52.268;20.968;2023-11-21T03:42:40;1.30;99.90
17200;DHT22;8716;52.268;20.968;2023-11-21T03:45:09;1.30;99.90
17200;DHT22;8716;52.268;20.968;2023-11-21T03:47:41;1.30;99.90
17200;DHT22;8716;52.268;20.968;2023-11-21T03:50:10;1.30;99.90
17200;DHT22;8716;52.268;20.968;2023-11-21T03:52:38;1.30;99.90
17200;DHT22;8716;52.268;20.968;2023-11-21T03:55:07;1.20;99.90
17200;DHT22;8716;52.268;20.968;2023-11-21T03:57:40;1.20;99.90
17200;DHT22;8716;52.268;20.968;2023-11-21T04:00:09;1.10;99.90
17200;DHT22;8716;52.268;20.968;2023-11-21T04:02:38;1.10;99.90
17200;DHT22;8716;52.268;20.968;2023-11-21T04:05:08;1.10;99.90
17200;DHT22;8716;52.268;20.968;2023-11-21T04:07:37;1.10;99.90
17200;DHT22;8716;52.268;20.968;2023-11-21T04:10:07;1.00;99.90
17200;DHT22;8716;52.268;20.968;2023-11-21T04:12:36;1.10;99.90
17200;DHT22;8716;52.268;20.968;2023-11-21T04:15:05;1.00;99.90
17200;DHT22;8716;52.268;20.968;2023-11-21T04:17:36;1.00;99.90
17200;DHT22;8716;52.268;20.968;2023-11-21T04:20:05;1.00;99.90
17200;DHT22;8716;52.268;20.968;2023-11-21T04:22:40;1.00;99.90
17200;DHT22;8716;52.268;20.968;2023-11-21T04:25:12;1.10;99.90
17200;DHT22;8716;52.268;20.968;2023-11-21T04:27:42;1.10;99.90
17200;DHT22;8716;52.268;20.968;2023-11-21T04:30:12;1.10;99.90
17200;DHT22;8716;52.268;20.968;2023-11-21T04:32:40;1.00;99.90
17200;DHT22;8716;52.268;20.968;2023-11-21T04:35:09;1.00;99.90
17200;DHT22;8716;52.268;20.968;2023-11-21T04:37:41;1.00;99.90
17200;DHT22;8716;52.268;20.968;2023-11-21T04:40:10;1.00;99.90
17200;DHT22;8716;52.268;20.968;2023-11-21T04:42:41;1.00;99.90
17200;DHT22;8716;52.268;20.968;2023-11-21T04:45:09;0.90;99.90
17200;DHT22;8716;52.268;20.968;2023-11-21T04:47:40;0.90;99.90
17200;DHT22;8716;52.268;20.968;2023-11-21T04:50:09;0.90;99.90
17200;DHT22;8716;52.268;20.968;2023-11-21T04:52:37;0.90;99.90
17200;DHT22;8716;52.268;20.968;2023-11-21T04:55:08;1.00;99.90
17200;DHT22;8716;52.268;20.968;2023-11-21T04:57:38;1.00;99.90
17200;DHT22;8716;52.268;20.968;2023-11-21T05:00:09;0.90;99.90
17200;DHT22;8716;52.268;20.968;2023-11-21T05:02:40;1.00;99.90
17200;DHT22;8716;52.268;20.968;2023-11-21T05:05:11;1.00;99.90
17200;DHT22;8716;52.268;20.968;2023-11-21T05:07:41;1.00;99.90
17200;DHT22;8716;52.268;20.968;2023-11-21T05:10:11;1.00;99.90
17200;DHT22;8716;52.268;20.968;2023-11-21T05:12:42;1.10;99.90
17200;DHT22;8716;52.268;20.968;2023-11-21T05:15:14;1.00;99.90
17200;DHT22;8716;52.268;20.968;2023-11-21T05:17:43;1.10;99.90
17200;DHT22;8716;52.268;20.968;2023-11-21T05:20:12;1.10;99.90
17200;DHT22;8716;52.268;20.968;2023-11-21T05:22:41;1.10;99.90
17200;DHT22;8716;52.268;20.968;2023-11-21T05:25:12;1.10;99.90
17200;DHT22;8716;52.268;20.968;2023-11-21T05:27:40;1.00;99.90
17200;DHT22;8716;52.268;20.968;2023-11-21T05:30:09;1.10;99.90
17200;DHT22;8716;52.268;20.968;2023-11-21T05:32:39;1.00;99.90
17200;DHT22;8716;52.268;20.968;2023-11-21T05:35:09;0.90;99.90
17200;DHT22;8716;52.268;20.968;2023-11-21T05:37:42;0.80;99.90
17200;DHT22;8716;52.268;20.968;2023-11-21T05:40:13;0.80;99.90
17200;DHT22;8716;52.268;20.968;2023-11-21T05:42:41;0.80;99.90
17200;DHT22;8716;52.268;20.968;2023-11-21T05:45:10;0.80;99.90
17200;DHT22;8716;52.268;20.968;2023-11-21T05:47:41;0.90;99.90
17200;DHT22;8716;52.268;20.968;2023-11-21T05:50:10;0.90;99.90
17200;DHT22;8716;52.268;20.968;2023-11-21T05:52:42;0.90;99.90
17200;DHT22;8716;52.268;20.968;2023-11-21T05:55:13;0.90;99.90
17200;DHT22;8716;52.268;20.968;2023-11-21T05:57:42;0.90;99.90
17200;DHT22;8716;52.268;20.968;2023-11-21T06:00:13;1.00;99.90
17200;DHT22;8716;52.268;20.968;2023-11-21T06:02:48;0.90;99.90
17200;DHT22;8716;52.268;20.968;2023-11-21T06:05:21;1.00;99.90
17200;DHT22;8716;52.268;20.968;2023-11-21T06:07:52;1.00;99.90
17200;DHT22;8716;52.268;20.968;2023-11-21T06:10:22;0.90;99.90
17200;DHT22;8716;52.268;20.968;2023-11-21T06:12:52;1.00;99.90
17200;DHT22;8716;52.268;20.968;2023-11-21T06:15:20;0.90;99.90
17200;DHT22;8716;52.268;20.968;2023-11-21T06:17:50;1.00;99.90
17200;DHT22;8716;52.268;20.968;2023-11-21T06:20:21;1.00;99.90
17200;DHT22;8716;52.268;20.968;2023-11-21T06:22:50;1.00;99.90
17200;DHT22;8716;52.268;20.968;2023-11-21T06:25:19;0.90;99.90
17200;DHT22;8716;52.268;20.968;2023-11-21T06:27:50;0.90;99.90
17200;DHT22;8716;52.268;20.968;2023-11-21T06:30:21;0.90;99.90
17200;DHT22;8716;52.268;20.968;2023-11-21T06:32:51;0.90;99.90
17200;DHT22;8716;52.268;20.968;2023-11-21T06:35:20;0.90;99.90
17200;DHT22;8716;52.268;20.968;2023-11-21T06:37:49;1.00;99.90
17200;DHT22;8716;52.268;20.968;2023-11-21T06:40:19;1.00;99.90
17200;DHT22;8716;52.268;20.968;2023-11-21T06:42:50;0.90;99.90
17200;DHT22;8716;52.268;20.968;2023-11-21T06:45:18;1.00;99.90
17200;DHT22;8716;52.268;20.968;2023-11-21T06:47:47;0.90;99.90
17200;DHT22;8716;52.268;20.968;2023-11-21T06:50:17;1.10;99.90
17200;DHT22;8716;52.268;20.968;2023-11-21T06:52:45;1.00;99.90
17200;DHT22;8716;52.268;20.968;2023-11-21T06:55:14;1.00;99.90
17200;DHT22;8716;52.268;20.968;2023-11-21T06:57:43;1.00;99.90
17200;DHT22;8716;52.268;20.968;2023-11-21T07:00:16;1.10;99.90
17200;DHT22;8716;52.268;20.968;2023-11-21T07:02:45;1.10;99.90
17200;DHT22;8716;52.268;20.968;2023-11-21T07:05:14;1.10;99.90
17200;DHT22;8716;52.268;20.968;2023-11-21T07:07:47;1.10;99.90
17200;DHT22;8716;52.268;20.968;2023-11-21T07:10:16;1.10;99.90
17200;DHT22;8716;52.268;20.968;2023-11-21T07:12:45;1.00;99.90
17200;DHT22;8716;52.268;20.968;2023-11-21T07:15:14;1.00;99.90
17200;DHT22;8716;52.268;20.968;2023-11-21T07:17:43;1.00;99.90
17200;DHT22;8716;52.268;20.968;2023-11-21T07:20:14;1.00;99.90
17200;DHT22;8716;52.268;20.968;2023-11-21T07:22:44;1.10;99.90
17200;DHT22;8716;52.268;20.968;2023-11-21T07:25:13;1.10;99.90
17200;DHT22;8716;52.268;20.968;2023-11-21T07:27:41;1.10;99.90
17200;DHT22;8716;52.268;20.968;2023-11-21T07:30:11;1.20;99.90
17200;DHT22;8716;52.268;20.968;2023-11-21T07:32:41;1.20;99.90
17200;DHT22;8716;52.268;20.968;2023-11-21T07:35:09;1.20;99.90
17200;DHT22;8716;52.268;20.968;2023-11-21T07:37:38;1.10;99.90
17200;DHT22;8716;52.268;20.968;2023-11-21T07:40:07;1.10;99.90
17200;DHT22;8716;52.268;20.968;2023-11-21T07:42:38;1.00;99.90
17200;DHT22;8716;52.268;20.968;2023-11-21T07:45:07;1.10;99.90
17200;DHT22;8716;52.268;20.968;2023-11-21T07:47:36;1.20;99.90
17200;DHT22;8716;52.268;20.968;2023-11-21T07:50:09;1.10;99.90
17200;DHT22;8716;52.268;20.968;2023-11-21T07:52:37;1.10;99.90
17200;DHT22;8716;52.268;20.968;2023-11-21T07:55:06;1.10;99.90
17200;DHT22;8716;52.268;20.968;2023-11-21T07:57:34;1.10;99.90
17200;DHT22;8716;52.268;20.968;2023-11-21T08:00:03;1.10;99.90
17200;DHT22;8716;52.268;20.968;2023-11-21T08:02:38;1.10;99.90
17200;DHT22;8716;52.268;20.968;2023-11-21T08:05:08;1.10;99.90
17200;DHT22;8716;52.268;20.968;2023-11-21T08:07:50;1.10;99.90
17200;DHT22;8716;52.268;20.968;2023-11-21T08:10:18;1.20;99.90
17200;DHT22;8716;52.268;20.968;2023-11-21T08:12:47;1.20;99.90
17200;DHT22;8716;52.268;20.968;2023-11-21T08:15:18;1.20;99.90
17200;DHT22;8716;52.268;20.968;2023-11-21T08:17:47;1.20;99.90
17200;DHT22;8716;52.268;20.968;2023-11-21T08:20:16;1.30;99.90
17200;DHT22;8716;52.268;20.968;2023-11-21T08:22:45;1.20;99.90
17200;DHT22;8716;52.268;20.968;2023-11-21T08:25:15;1.20;99.90
17200;DHT22;8716;52.268;20.968;2023-11-21T08:27:44;1.20;99.90
17200;DHT22;8716;52.268;20.968;2023-11-21T08:30:13;1.20;99.90
17200;DHT22;8716;52.268;20.968;2023-11-21T08:32:43;1.20;99.90
17200;DHT22;8716;52.268;20.968;2023-11-21T08:35:12;1.20;99.90
17200;DHT22;8716;52.268;20.968;2023-11-21T08:37:42;1.30;99.90
17200;DHT22;8716;52.268;20.968;2023-11-21T08:40:12;1.30;99.90
17200;DHT22;8716;52.268;20.968;2023-11-21T08:42:44;1.30;99.90
17200;DHT22;8716;52.268;20.968;2023-11-21T08:45:13;1.30;99.90
17200;DHT22;8716;52.268;20.968;2023-11-21T08:47:42;1.20;99.90
17200;DHT22;8716;52.268;20.968;2023-11-21T08:50:11;1.30;99.90
17200;DHT22;8716;52.268;20.968;2023-11-21T08:52:41;1.20;99.90
17200;DHT22;8716;52.268;20.968;2023-11-21T08:55:10;1.20;99.90
17200;DHT22;8716;52.268;20.968;2023-11-21T08:57:40;1.20;99.90
17200;DHT22;8716;52.268;20.968;2023-11-21T09:00:10;1.20;99.90
17200;DHT22;8716;52.268;20.968;2023-11-21T09:02:39;1.20;99.90
17200;DHT22;8716;52.268;20.968;2023-11-21T09:05:09;1.30;99.90
17200;DHT22;8716;52.268;20.968;2023-11-21T09:07:40;1.30;99.90
17200;DHT22;8716;52.268;20.968;2023-11-21T09:10:11;1.30;99.90
17200;DHT22;8716;52.268;20.968;2023-11-21T09:12:39;1.30;99.90
17200;DHT22;8716;52.268;20.968;2023-11-21T09:15:08;1.40;99.90
17200;DHT22;8716;52.268;20.968;2023-11-21T09:17:39;1.40;99.90
17200;DHT22;8716;52.268;20.968;2023-11-21T09:20:09;1.50;99.90
17200;DHT22;8716;52.268;20.968;2023-11-21T09:22:38;1.50;99.90
17200;DHT22;8716;52.268;20.968;2023-11-21T09:25:07;1.50;99.90
17200;DHT22;8716;52.268;20.968;2023-11-21T09:27:37;1.60;99.90
17200;DHT22;8716;52.268;20.968;2023-11-21T09:30:06;1.60;99.90
17200;DHT22;8716;52.268;20.968;2023-11-21T09:32:37;1.60;99.90
17200;DHT22;8716;52.268;20.968;2023-11-21T09:35:10;1.60;99.90
17200;DHT22;8716;52.268;20.968;2023-11-21T09:37:41;1.60;99.90
17200;DHT22;8716;52.268;20.968;2023-11-21T09:40:12;1.60;99.90
17200;DHT22;8716;52.268;20.968;2023-11-21T09:42:49;1.70;99.90
17200;DHT22;8716;52.268;20.968;2023-11-21T09:45:25;1.70;99.90
17200;DHT22;8716;52.268;20.968;2023-11-21T09:47:54;1.80;99.90
17200;DHT22;8716;52.268;20.968;2023-11-21T09:50:24;1.80;99.90
17200;DHT22;8716;52.268;20.968;2023-11-21T09:53:08;1.80;99.90
17200;DHT22;8716;52.268;20.968;2023-11-21T09:55:43;1.90;99.90
17200;DHT22;8716;52.268;20.968;2023-11-21T09:58:14;1.90;99.90
17200;DHT22;8716;52.268;20.968;2023-11-21T10:00:43;1.90;99.90
17200;DHT22;8716;52.268;20.968;2023-11-21T10:03:11;1.90;99.90
17200;DHT22;8716;52.268;20.968;2023-11-21T10:05:41;2.00;99.90
17200;DHT22;8716;52.268;20.968;2023-11-21T10:08:10;2.00;99.90
17200;DHT22;8716;52.268;20.968;2023-11-21T10:10:43;1.90;99.90
17200;DHT22;8716;52.268;20.968;2023-11-21T10:13:14;1.90;99.90
17200;DHT22;8716;52.268;20.968;2023-11-21T10:15:49;2.00;99.90
17200;DHT22;8716;52.268;20.968;2023-11-21T10:18:18;2.00;99.90
17200;DHT22;8716;52.268;20.968;2023-11-21T10:20:46;1.90;99.90
17200;DHT22;8716;52.268;20.968;2023-11-21T10:23:21;1.90;99.90
17200;DHT22;8716;52.268;20.968;2023-11-21T10:25:50;2.00;99.90
17200;DHT22;8716;52.268;20.968;2023-11-21T10:28:21;2.00;99.90
17200;DHT22;8716;52.268;20.968;2023-11-21T10:30:49;1.90;99.90
17200;DHT22;8716;52.268;20.968;2023-11-21T10:33:27;1.90;99.90
17200;DHT22;8716;52.268;20.968;2023-11-21T10:35:56;1.90;99.90
17200;DHT22;8716;52.268;20.968;2023-11-21T10:38:25;1.90;99.90
17200;DHT22;8716;52.268;20.968;2023-11-21T10:40:54;2.00;99.90
17200;DHT22;8716;52.268;20.968;2023-11-21T10:43:26;1.90;99.90
17200;DHT22;8716;52.268;20.968;2023-11-21T10:45:58;2.00;99.90
17200;DHT22;8716;52.268;20.968;2023-11-21T10:48:27;2.00;99.90
17200;DHT22;8716;52.268;20.968;2023-11-21T10:50:55;2.00;99.90
17200;DHT22;8716;52.268;20.968;2023-11-21T10:53:28;2.00;99.90
17200;DHT22;8716;52.268;20.968;2023-11-21T10:56:02;2.10;99.90
17200;DHT22;8716;52.268;20.968;2023-11-21T10:58:35;2.00;99.90
17200;DHT22;8716;52.268;20.968;2023-11-21T11:01:06;2.00;99.90
17200;DHT22;8716;52.268;20.968;2023-11-21T11:03:36;2.00;99.90
17200;DHT22;8716;52.268;20.968;2023-11-21T11:06:05;2.00;99.90
17200;DHT22;8716;52.268;20.968;2023-11-21T11:08:39;2.00;99.90
17200;DHT22;8716;52.268;20.968;2023-11-21T11:11:09;2.00;99.90
17200;DHT22;8716;52.268;20.968;2023-11-21T11:13:43;1.90;99.90
17200;DHT22;8716;52.268;20.968;2023-11-21T11:16:13;2.00;99.90
17200;DHT22;8716;52.268;20.968;2023-11-21T11:18:44;2.00;99.90
17200;DHT22;8716;52.268;20.968;2023-11-21T11:21:33;2.00;99.90
17200;DHT22;8716;52.268;20.968;2023-11-21T11:24:32;1.90;99.90
17200;DHT22;8716;52.268;20.968;2023-11-21T11:27:11;1.90;99.90
17200;DHT22;8716;52.268;20.968;2023-11-21T11:29:52;1.90;99.90
17200;DHT22;8716;52.268;20.968;2023-11-21T11:32:37;1.90;99.90
17200;DHT22;8716;52.268;20.968;2023-11-21T11:35:13;1.90;99.90
17200;DHT22;8716;52.268;20.968;2023-11-21T11:37:45;1.80;99.90
17200;DHT22;8716;52.268;20.968;2023-11-21T11:40:14;1.80;99.90
17200;DHT22;8716;52.268;20.968;2023-11-21T11:42:56;2.00;99.90
17200;DHT22;8716;52.268;20.968;2023-11-21T11:45:32;1.70;99.90
17200;DHT22;8716;52.268;20.968;2023-11-21T11:48:04;1.80;99.90
17200;DHT22;8716;52.268;20.968;2023-11-21T11:50:33;1.70;99.90
17200;DHT22;8716;52.268;20.968;2023-11-21T11:53:13;1.70;99.90
17200;DHT22;8716;52.268;20.968;2023-11-21T11:55:42;1.60;99.90
17200;DHT22;8716;52.268;20.968;2023-11-21T11:58:11;1.60;99.90
17200;DHT22;8716;52.268;20.968;2023-11-21T12:00:42;1.60;99.90
17200;DHT22;8716;52.268;20.968;2023-11-21T12:03:13;1.60;99.90
17200;DHT22;8716;52.268;20.968;2023-11-21T12:05:42;1.60;99.90
17200;DHT22;8716;52.268;20.968;2023-11-21T12:08:12;1.70;99.90
17200;DHT22;8716;52.268;20.968;2023-11-21T12:10:40;1.80;99.90
17200;DHT22;8716;52.268;20.968;2023-11-21T12:13:10;1.80;99.90
17200;DHT22;8716;52.268;20.968;2023-11-21T12:15:41;1.80;99.90
17200;DHT22;8716;52.268;20.968;2023-11-21T12:18:10;1.80;99.90
17200;DHT22;8716;52.268;20.968;2023-11-21T12:20:38;1.80;99.90
17200;DHT22;8716;52.268;20.968;2023-11-21T12:23:08;1.80;99.90
17200;DHT22;8716;52.268;20.968;2023-11-21T12:25:38;1.80;99.90
17200;DHT22;8716;52.268;20.968;2023-11-21T12:28:09;1.80;99.90
17200;DHT22;8716;52.268;20.968;2023-11-21T12:30:39;1.90;99.90
17200;DHT22;8716;52.268;20.968;2023-11-21T12:33:08;1.80;99.90
17200;DHT22;8716;52.268;20.968;2023-11-21T12:35:37;1.80;99.90
17200;DHT22;8716;52.268;20.968;2023-11-21T12:38:06;1.80;99.90
17200;DHT22;8716;52.268;20.968;2023-11-21T12:40:36;1.80;99.90
17200;DHT22;8716;52.268;20.968;2023-11-21T12:43:06;1.80;99.90
17200;DHT22;8716;52.268;20.968;2023-11-21T12:45:36;1.80;99.90
17200;DHT22;8716;52.268;20.968;2023-11-21T12:48:06;1.80;99.90
17200;DHT22;8716;52.268;20.968;2023-11-21T12:50:38;1.80;99.90
17200;DHT22;8716;52.268;20.968;2023-11-21T12:53:08;1.80;99.90
17200;DHT22;8716;52.268;20.968;2023-11-21T12:55:39;1.80;99.90
17200;DHT22;8716;52.268;20.968;2023-11-21T12:58:10;1.80;99.90
17200;DHT22;8716;52.268;20.968;2023-11-21T13:00:42;1.80;99.90
17200;DHT22;8716;52.268;20.968;2023-11-21T13:03:11;1.70;99.90
17200;DHT22;8716;52.268;20.968;2023-11-21T13:05:47;1.70;99.90
17200;DHT22;8716;52.268;20.968;2023-11-21T13:08:20;1.70;99.90
17200;DHT22;8716;52.268;20.968;2023-11-21T13:10:52;1.80;99.90
17200;DHT22;8716;52.268;20.968;2023-11-21T13:13:28;1.80;99.90
17200;DHT22;8716;52.268;20.968;2023-11-21T13:15:59;1.80;99.90
17200;DHT22;8716;52.268;20.968;2023-11-21T14:27:14;1.40;99.90
17200;DHT22;8716;52.268;20.968;2023-11-21T16:41:17;1.30;99.90
17200;DHT22;8716;52.268;20.968;2023-11-21T16:43:45;1.30;99.90
17200;DHT22;8716;52.268;20.968;2023-11-21T16:46:14;1.30;99.90
17200;DHT22;8716;52.268;20.968;2023-11-21T16:48:42;1.20;99.90
17200;DHT22;8716;52.268;20.968;2023-11-21T16:51:10;1.20;99.90
17200;DHT22;8716;52.268;20.968;2023-11-21T16:53:39;1.20;99.90
17200;DHT22;8716;52.268;20.968;2023-11-21T16:56:09;1.20;99.90
17200;DHT22;8716;52.268;20.968;2023-11-21T16:58:39;1.10;99.90
17200;DHT22;8716;52.268;20.968;2023-11-21T17:01:08;1.10;99.90
17200;DHT22;8716;52.268;20.968;2023-11-21T17:03:36;1.10;99.90
17200;DHT22;8716;52.268;20.968;2023-11-21T17:06:05;1.20;99.90
17200;DHT22;8716;52.268;20.968;2023-11-21T17:08:33;1.10;99.90
17200;DHT22;8716;52.268;20.968;2023-11-21T17:11:01;1.20;99.90
17200;DHT22;8716;52.268;20.968;2023-11-21T17:13:31;1.20;99.90
17200;DHT22;8716;52.268;20.968;2023-11-21T17:16:00;1.20;99.90
17200;DHT22;8716;52.268;20.968;2023-11-21T17:18:29;1.10;99.90
17200;DHT22;8716;52.268;20.968;2023-11-21T17:20:57;1.20;99.90
17200;DHT22;8716;52.268;20.968;2023-11-21T17:23:26;1.10;99.90
17200;DHT22;8716;52.268;20.968;2023-11-21T17:25:54;1.20;99.90
17200;DHT22;8716;52.268;20.968;2023-11-21T17:28:23;1.10;99.90
17200;DHT22;8716;52.268;20.968;2023-11-21T17:30:53;1.20;99.90
17200;DHT22;8716;52.268;20.968;2023-11-21T17:33:23;1.20;99.90
17200;DHT22;8716;52.268;20.968;2023-11-21T17:35:52;1.20;99.90
17200;DHT22;8716;52.268;20.968;2023-11-21T17:38:22;1.10;99.90
17200;DHT22;8716;52.268;20.968;2023-11-21T17:40:50;1.10;99.90
17200;DHT22;8716;52.268;20.968;2023-11-21T17:43:19;1.10;99.90
17200;DHT22;8716;52.268;20.968;2023-11-21T17:45:48;1.10;99.90
17200;DHT22;8716;52.268;20.968;2023-11-21T17:48:18;1.10;99.90
17200;DHT22;8716;52.268;20.968;2023-11-21T17:50:49;1.00;99.90
17200;DHT22;8716;52.268;20.968;2023-11-21T18:23:42;1.00;99.90
17200;DHT22;8716;52.268;20.968;2023-11-21T18:26:19;1.00;99.90
17200;DHT22;8716;52.268;20.968;2023-11-21T18:28:51;1.00;99.90
17200;DHT22;8716;52.268;20.968;2023-11-21T18:31:19;1.00;99.90
17200;DHT22;8716;52.268;20.968;2023-11-21T18:34:00;1.00;99.90
17200;DHT22;8716;52.268;20.968;2023-11-21T18:36:28;1.00;99.90
17200;DHT22;8716;52.268;20.968;2023-11-21T18:38:59;1.00;99.90
17200;DHT22;8716;52.268;20.968;2023-11-21T18:41:28;0.90;99.90
17200;DHT22;8716;52.268;20.968;2023-11-21T18:44:01;1.00;99.90
17200;DHT22;8716;52.268;20.968;2023-11-21T18:49:21;0.90;99.90
17200;DHT22;8716;52.268;20.968;2023-11-21T18:51:50;1.00;99.90
17200;DHT22;8716;52.268;20.968;2023-11-21T18:54:36;1.00;99.90
17200;DHT22;8716;52.268;20.968;2023-11-21T18:57:05;1.00;99.90
17200;DHT22;8716;52.268;20.968;2023-11-21T18:59:51;1.00;99.90
17200;DHT22;8716;52.268;20.968;2023-11-21T19:02:19;1.10;99.90
17200;DHT22;8716;52.268;20.968;2023-11-21T19:04:48;1.10;99.90
17200;DHT22;8716;52.268;20.968;2023-11-21T19:07:17;1.00;99.90
17200;DHT22;8716;52.268;20.968;2023-11-21T19:09:51;1.00;99.90
17200;DHT22;8716;52.268;20.968;2023-11-21T19:12:21;1.00;99.90
17200;DHT22;8716;52.268;20.968;2023-11-21T19:14:49;0.90;99.90
17200;DHT22;8716;52.268;20.968;2023-11-21T19:17:18;1.00;99.90
17200;DHT22;8716;52.268;20.968;2023-11-21T19:19:47;1.10;99.90
17200;DHT22;8716;52.268;20.968;2023-11-21T19:22:17;0.80;99.90
17200;DHT22;8716;52.268;20.968;2023-11-21T19:24:46;0.90;99.90
17200;DHT22;8716;52.268;20.968;2023-11-21T19:27:17;0.90;99.90
17200;DHT22;8716;52.268;20.968;2023-11-21T19:29:47;0.90;99.90
17200;DHT22;8716;52.268;20.968;2023-11-21T19:32:16;0.80;99.90
17200;DHT22;8716;52.268;20.968;2023-11-21T19:34:44;0.80;99.90
17200;DHT22;8716;52.268;20.968;2023-11-21T19:37:13;0.90;99.90
17200;DHT22;8716;52.268;20.968;2023-11-21T19:39:41;0.90;99.90
17200;DHT22;8716;52.268;20.968;2023-11-21T19:42:10;0.80;99.90
17200;DHT22;8716;52.268;20.968;2023-11-21T19:44:41;0.80;99.90
17200;DHT22;8716;52.268;20.968;2023-11-21T19:47:10;0.80;99.90
17200;DHT22;8716;52.268;20.968;2023-11-21T19:49:40;0.80;99.90
17200;DHT22;8716;52.268;20.968;2023-11-21T19:52:08;0.70;99.90
17200;DHT22;8716;52.268;20.968;2023-11-21T19:54:37;0.80;99.90
17200;DHT22;8716;52.268;20.968;2023-11-21T19:57:05;0.80;99.90